Time;durP1;ratioP1;P1;durP2;ratioP2;P2;SDS_P1;SDS_P2;PMS_P1;PMS_P2;Temp;Humidity;BMP_temperature;BMP_pressure;BME280_temperature;BME280_humidity;BME280_pressure;Samples;Min_cycle;Max_cycle;Signal;HPM_P1;HPM_P2
2023/03/22 00:00:38;;;;;;;12.00;7.50;;;10.80;99.90;;;;;;5160550;27;20065;-76
2023/03/22 00:03:05;;;;;;;11.93;7.28;;;10.70;99.90;;;;;;5160530;27;20047;-75
2023/03/22 00:05:31;;;;;;;15.98;7.60;;;10.70;99.90;;;;;;5160414;27;20042;-76
2023/03/22 00:07:58;;;;;;;10.88;7.20;;;10.70;99.90;;;;;;5157566;27;20043;-76
2023/03/22 00:10:26;;;;;;;11.70;6.57;;;10.70;99.90;;;;;;5138649;27;20376;-76
2023/03/22 00:12:52;;;;;;;9.68;7.55;;;10.70;99.90;;;;;;5157173;27;20131;-77
2023/03/22 00:15:18;;;;;;;11.27;6.88;;;10.70;99.90;;;;;;5121598;27;20090;-76
2023/03/22 00:17:44;;;;;;;10.70;7.97;;;10.70;99.90;;;;;;5157199;27;20038;-76
2023/03/22 00:20:10;;;;;;;12.35;6.90;;;10.80;99.90;;;;;;5121460;27;20381;-77
2023/03/22 00:22:37;;;;;;;14.30;6.75;;;10.70;99.90;;;;;;5157548;27;20085;-76
2023/03/22 00:25:04;;;;;;;8.00;5.97;;;10.70;99.90;;;;;;5157359;27;20090;-77
2023/03/22 00:27:30;;;;;;;10.15;5.72;;;10.70;99.90;;;;;;5157380;27;20109;-76
2023/03/22 00:29:56;;;;;;;11.77;6.35;;;10.70;99.90;;;;;;5156735;27;20039;-76
2023/03/22 00:32:22;;;;;;;10.48;6.53;;;10.70;99.90;;;;;;5156825;27;20042;-77
2023/03/22 00:34:47;;;;;;;9.13;6.40;;;10.70;99.90;;;;;;5157249;27;20428;-76
2023/03/22 00:37:15;;;;;;;8.07;5.75;;;10.70;99.90;;;;;;5156617;27;20402;-77
2023/03/22 00:39:41;;;;;;;12.13;6.32;;;10.70;99.90;;;;;;5157088;27;20085;-77
2023/03/22 00:42:07;;;;;;;9.32;5.63;;;10.60;99.90;;;;;;5138538;27;20086;-76
2023/03/22 00:44:33;;;;;;;11.40;6.85;;;10.60;99.90;;;;;;5157098;27;20046;-76
2023/03/22 00:46:58;;;;;;;11.00;6.35;;;10.60;99.90;;;;;;5156577;27;20042;-77
2023/03/22 00:49:26;;;;;;;8.80;6.07;;;10.60;99.90;;;;;;5156458;27;20498;-76
2023/03/22 00:51:51;;;;;;;10.90;5.40;;;10.60;99.90;;;;;;5156452;27;20039;-76
2023/03/22 00:54:17;;;;;;;7.70;5.53;;;10.50;99.90;;;;;;5138155;27;20065;-76
2023/03/22 00:56:48;;;;;;;8.63;5.82;;;10.50;99.90;;;;;;5156876;27;20098;-75
2023/03/22 00:59:15;;;;;;;10.23;6.22;;;10.50;99.90;;;;;;5156356;27;20047;-76
2023/03/22 01:01:42;;;;;;;9.57;5.03;;;10.50;99.90;;;;;;5137961;27;20110;-76
2023/03/22 01:04:07;;;;;;;7.50;4.55;;;10.50;99.90;;;;;;5156331;27;20094;-77
2023/03/22 01:06:34;;;;;;;9.40;6.18;;;10.40;99.90;;;;;;5137778;27;20374;-77
2023/03/22 01:09:00;;;;;;;9.15;5.75;;;10.40;99.90;;;;;;5156503;27;20083;-76
2023/03/22 01:11:27;;;;;;;9.82;5.40;;;10.40;99.90;;;;;;5156083;27;20118;-76
2023/03/22 01:13:54;;;;;;;9.05;5.18;;;10.40;99.90;;;;;;5155926;27;20066;-76
2023/03/22 01:16:20;;;;;;;10.88;5.78;;;10.40;99.90;;;;;;5155879;27;20051;-76
2023/03/22 01:18:46;;;;;;;8.73;5.07;;;10.40;99.90;;;;;;5136985;27;20038;-76
2023/03/22 01:21:12;;;;;;;9.18;4.78;;;10.40;99.90;;;;;;5120420;27;20122;-75
2023/03/22 01:23:38;;;;;;;9.77;4.65;;;10.40;99.90;;;;;;5156025;27;20046;-76
2023/03/22 01:26:04;;;;;;;4.72;3.88;;;10.30;99.90;;;;;;5155698;27;20038;-76
2023/03/22 01:28:30;;;;;;;8.43;4.03;;;10.30;99.90;;;;;;5137895;27;20409;-77
2023/03/22 01:31:00;;;;;;;8.77;4.93;;;10.30;99.90;;;;;;5155587;27;20045;-75
2023/03/22 01:33:25;;;;;;;7.07;4.03;;;10.30;99.90;;;;;;5155483;27;20047;-76
2023/03/22 01:35:51;;;;;;;7.15;4.10;;;10.30;99.90;;;;;;5155384;27;20048;-76
2023/03/22 01:38:17;;;;;;;6.80;4.70;;;10.30;99.90;;;;;;5155372;27;20095;-76
2023/03/22 01:40:42;;;;;;;10.35;4.20;;;10.30;99.90;;;;;;5155402;27;20080;-76
2023/03/22 01:43:16;;;;;;;5.82;4.03;;;10.20;99.90;;;;;;5137390;27;20434;-76
2023/03/22 01:45:48;;;;;;;;;;;10.20;99.90;;;;;;5156193;27;20046;-76
2023/03/22 01:48:32;;;;;;;9.20;3.65;;;10.20;99.90;;;;;;5155349;27;19966;-76
2023/03/22 01:51:02;;;;;;;6.70;4.07;;;10.20;99.90;;;;;;5155577;27;20043;-75
2023/03/22 01:53:33;;;;;;;7.07;3.47;;;10.20;99.90;;;;;;5155191;27;20051;-76
2023/03/22 01:56:00;;;;;;;6.93;4.13;;;10.20;99.90;;;;;;5155155;27;20482;-77
2023/03/22 01:58:26;;;;;;;10.63;3.90;;;10.20;99.90;;;;;;5154980;27;20046;-76
2023/03/22 02:00:53;;;;;;;9.02;3.65;;;10.20;99.90;;;;;;5154991;27;20118;-76
2023/03/22 02:03:44;;;;;;;11.23;3.47;;;10.20;99.90;;;;;;5136523;27;20046;-75
2023/03/22 02:06:10;;;;;;;7.57;3.60;;;10.10;99.90;;;;;;5155010;27;20078;-76
2023/03/22 02:08:36;;;;;;;6.13;4.07;;;10.10;99.90;;;;;;5154836;27;20046;-76
2023/03/22 02:11:03;;;;;;;8.27;3.90;;;10.10;99.90;;;;;;5155088;27;20142;-76
2023/03/22 02:14:02;;;;;;;8.40;3.55;;;10.10;99.90;;;;;;5154981;27;20062;-75
2023/03/22 02:16:41;;;;;;;9.07;4.07;;;10.10;99.90;;;;;;5153881;27;20097;-75
2023/03/22 02:19:33;;;;;;;9.23;3.10;;;10.10;99.90;;;;;;5136675;27;20074;-76
2023/03/22 02:22:22;;;;;;;7.13;3.60;;;10.10;99.90;;;;;;5154599;27;20138;-76
2023/03/22 02:25:26;;;;;;;6.75;3.28;;;10.10;99.90;;;;;;5154870;27;20046;-76
2023/03/22 02:28:04;;;;;;;6.82;2.70;;;10.10;99.90;;;;;;5154483;27;20050;-75
2023/03/22 02:30:52;;;;;;;5.55;2.85;;;10.10;99.90;;;;;;5154513;27;20038;-76
2023/03/22 02:33:43;;;;;;;6.13;3.03;;;10.10;99.90;;;;;;5152876;27;20107;-75
2023/03/22 02:36:37;;;;;;;10.85;3.28;;;10.10;99.90;;;;;;5153835;27;20483;-76
2023/03/22 02:39:31;;;;;;;4.93;3.30;;;10.00;99.90;;;;;;5154294;27;20130;-76
2023/03/22 02:42:22;;;;;;;7.15;3.00;;;10.00;99.90;;;;;;5154321;27;20049;-76
2023/03/22 02:44:54;;;;;;;4.30;3.28;;;10.10;99.90;;;;;;5154981;27;20042;-75
2023/03/22 02:47:47;;;;;;;6.93;3.80;;;10.00;99.90;;;;;;5154392;27;20127;-76
2023/03/22 02:50:34;;;;;;;2.97;2.15;;;10.00;99.90;;;;;;5154633;27;20039;-76
2023/03/22 02:53:15;;;;;;;6.95;3.65;;;10.10;99.90;;;;;;5154810;27;20046;-75
2023/03/22 02:55:47;;;;;;;6.93;3.33;;;10.00;99.90;;;;;;5154694;27;20050;-77
2023/03/22 02:58:24;;;;;;;5.90;3.00;;;10.00;99.90;;;;;;5154455;27;20043;-76
2023/03/22 03:00:56;;;;;;;5.22;3.00;;;10.10;99.90;;;;;;5154915;27;20393;-76
2023/03/22 03:03:25;;;;;;;8.35;3.00;;;10.00;99.90;;;;;;5154482;27;20042;-76
2023/03/22 03:06:15;;;;;;;6.78;3.00;;;10.00;99.90;;;;;;5154159;27;20058;-76
2023/03/22 03:08:42;;;;;;;10.07;3.75;;;10.00;99.90;;;;;;5154374;27;20440;-76
2023/03/22 03:11:08;;;;;;;7.20;3.25;;;10.10;99.90;;;;;;5154110;27;20055;-76
2023/03/22 03:13:34;;;;;;;6.63;3.05;;;10.10;99.90;;;;;;5154055;27;20046;-76
2023/03/22 03:16:02;;;;;;;5.55;3.20;;;10.10;99.90;;;;;;5153999;27;20115;-76
2023/03/22 03:18:47;;;;;;;8.10;3.28;;;10.10;99.90;;;;;;5154026;27;20047;-75
2023/03/22 03:21:16;;;;;;;7.22;3.22;;;10.10;99.90;;;;;;5153842;27;20544;-76
2023/03/22 03:24:07;;;;;;;9.13;3.00;;;10.10;99.90;;;;;;5153537;27;20491;-76
2023/03/22 03:26:50;;;;;;;8.52;2.90;;;10.10;99.90;;;;;;5154320;27;20053;-75
2023/03/22 03:29:28;;;;;;;;;;;10.10;99.90;;;;;;5135700;27;20042;-76
2023/03/22 03:31:54;;;;;;;9.63;3.35;;;10.10;99.90;;;;;;5154441;27;19970;-76
2023/03/22 03:34:38;;;;;;;6.47;3.53;;;10.10;99.90;;;;;;5153865;27;20106;-77
2023/03/22 03:37:27;;;;;;;11.98;3.50;;;10.10;99.90;;;;;;5154243;27;20485;-77
2023/03/22 03:40:12;;;;;;;5.60;3.20;;;10.10;99.90;;;;;;5154297;27;20078;-75
2023/03/22 03:42:43;;;;;;;7.72;3.80;;;10.10;99.90;;;;;;5155713;27;20459;-76
2023/03/22 03:45:10;;;;;;;5.97;3.55;;;10.10;99.90;;;;;;5157681;27;20045;-76
2023/03/22 03:47:36;;;;;;;5.97;3.55;;;10.10;99.90;;;;;;5139055;27;20118;-76
2023/03/22 03:50:03;;;;;;;5.80;3.42;;;10.10;99.90;;;;;;5157494;27;20047;-76
2023/03/22 03:52:29;;;;;;;8.07;3.90;;;10.10;99.90;;;;;;5139383;27;20564;-76
2023/03/22 03:54:54;;;;;;;5.22;3.33;;;10.10;99.90;;;;;;5157599;27;20074;-76
2023/03/22 03:57:20;;;;;;;7.90;3.47;;;10.10;99.90;;;;;;5157503;27;20535;-76
2023/03/22 03:59:46;;;;;;;5.20;3.28;;;10.10;99.90;;;;;;5157899;27;20077;-76
2023/03/22 04:02:12;;;;;;;10.45;3.97;;;10.10;99.90;;;;;;5157770;27;20129;-76
2023/03/22 04:04:38;;;;;;;5.15;3.33;;;10.10;99.90;;;;;;5157903;27;20043;-75
2023/03/22 04:07:05;;;;;;;9.57;4.05;;;10.10;99.90;;;;;;5157479;27;20118;-76
2023/03/22 04:09:36;;;;;;;8.23;4.50;;;10.10;99.90;;;;;;5139611;27;20094;-76
2023/03/22 04:12:03;;;;;;;9.32;4.00;;;10.20;99.90;;;;;;5157234;27;20500;-77
2023/03/22 04:14:28;;;;;;;5.68;3.63;;;10.20;99.90;;;;;;5157541;27;20070;-75
2023/03/22 04:16:54;;;;;;;6.78;3.28;;;10.20;99.90;;;;;;5157128;27;20493;-75
2023/03/22 04:19:20;;;;;;;6.72;3.30;;;10.20;99.90;;;;;;5157653;27;20041;-76
2023/03/22 04:21:46;;;;;;;5.57;3.13;;;10.10;99.90;;;;;;5138866;27;20099;-75
2023/03/22 04:24:12;;;;;;;7.30;3.65;;;10.20;99.90;;;;;;5156888;27;20451;-76
2023/03/22 04:26:39;;;;;;;7.60;3.55;;;10.10;99.90;;;;;;5156972;27;20473;-75
2023/03/22 04:29:05;;;;;;;6.65;3.30;;;10.10;99.90;;;;;;5156537;27;20046;-76
2023/03/22 04:31:32;;;;;;;5.53;2.92;;;10.10;99.90;;;;;;5156429;27;20042;-75
2023/03/22 04:33:59;;;;;;;8.60;4.47;;;10.10;99.90;;;;;;5156601;27;20042;-76
2023/03/22 04:36:30;;;;;;;10.93;4.20;;;10.10;99.90;;;;;;5156432;27;20214;-76
2023/03/22 04:38:56;;;;;;;6.25;3.72;;;10.10;99.90;;;;;;5156713;27;20050;-76
2023/03/22 04:41:21;;;;;;;6.20;4.13;;;10.10;99.90;;;;;;5156432;27;20045;-75
2023/03/22 04:43:49;;;;;;;8.60;4.65;;;10.10;99.90;;;;;;5156875;27;20050;-76
2023/03/22 04:46:16;;;;;;;8.63;4.50;;;10.10;99.90;;;;;;5156314;27;20051;-75
2023/03/22 04:48:43;;;;;;;6.43;4.32;;;10.10;99.90;;;;;;5156321;27;20050;-76
2023/03/22 04:51:10;;;;;;;9.82;4.32;;;10.10;99.90;;;;;;5138329;27;20352;-77
2023/03/22 04:53:39;;;;;;;7.85;4.75;;;10.10;99.90;;;;;;5155689;27;20050;-76
2023/03/22 04:56:08;;;;;;;10.35;5.90;;;10.20;99.90;;;;;;5156130;27;20050;-75
2023/03/22 04:58:35;;;;;;;7.32;5.35;;;10.20;99.90;;;;;;5156137;27;20082;-76
2023/03/22 05:01:01;;;;;;;10.68;5.35;;;10.20;99.90;;;;;;5156458;27;20079;-76
2023/03/22 05:03:26;;;;;;;10.13;5.70;;;10.20;99.90;;;;;;5156709;27;20047;-75
2023/03/22 05:05:57;;;;;;;9.77;7.50;;;10.20;99.90;;;;;;5156307;27;20463;-75
2023/03/22 05:08:24;;;;;;;8.80;5.85;;;10.20;99.90;;;;;;5156057;27;20039;-76
2023/03/22 05:10:55;;;;;;;10.00;6.22;;;10.20;99.90;;;;;;5155470;27;20508;-76
2023/03/22 05:13:22;;;;;;;8.68;6.68;;;10.20;99.90;;;;;;5155937;27;20436;-76
2023/03/22 05:15:48;;;;;;;11.68;6.95;;;10.20;99.90;;;;;;5156131;27;20465;-77
2023/03/22 05:18:15;;;;;;;13.05;9.05;;;10.20;99.90;;;;;;5155782;27;20039;-76
2023/03/22 05:20:42;;;;;;;9.90;7.05;;;10.20;99.90;;;;;;5156153;27;20043;-76
2023/03/22 05:23:09;;;;;;;15.52;8.05;;;10.30;99.90;;;;;;5155702;27;20042;-75
2023/03/22 05:25:35;;;;;;;12.23;8.35;;;10.30;99.90;;;;;;5155682;27;20057;-76
2023/03/22 05:28:02;;;;;;;13.32;8.38;;;10.30;99.90;;;;;;5155627;27;20053;-76
2023/03/22 05:30:28;;;;;;;12.23;7.47;;;10.30;99.90;;;;;;5136994;27;20038;-76
2023/03/22 05:32:58;;;;;;;10.10;8.02;;;10.30;99.90;;;;;;5155447;27;20068;-73
2023/03/22 05:35:25;;;;;;;14.55;9.45;;;10.30;99.90;;;;;;5155739;27;20137;-76
2023/03/22 05:37:51;;;;;;;14.13;9.13;;;10.20;99.90;;;;;;5155352;27;20479;-76
2023/03/22 05:40:17;;;;;;;13.45;9.00;;;10.20;99.90;;;;;;5155713;27;20039;-76
2023/03/22 05:42:44;;;;;;;14.55;9.15;;;10.30;99.90;;;;;;5155052;27;20038;-75
2023/03/22 05:45:10;;;;;;;15.65;10.07;;;10.30;99.90;;;;;;5155176;27;20042;-75
2023/03/22 05:47:38;;;;;;;13.55;9.13;;;10.40;99.90;;;;;;5155092;27;20053;-75
2023/03/22 05:50:06;;;;;;;16.05;9.95;;;10.40;99.90;;;;;;5154953;27;20042;-74
2023/03/22 05:52:31;;;;;;;13.38;9.80;;;10.40;99.90;;;;;;5136547;27;20043;-75
2023/03/22 05:54:57;;;;;;;13.82;9.88;;;10.40;99.90;;;;;;5154801;27;20443;-74
2023/03/22 05:57:23;;;;;;;13.90;9.52;;;10.40;99.90;;;;;;5119605;27;20047;-75
2023/03/22 05:59:52;;;;;;;13.77;9.68;;;10.40;99.90;;;;;;5154673;27;20049;-75
2023/03/22 06:02:18;;;;;;;16.77;9.95;;;10.40;99.90;;;;;;5136316;27;20041;-74
2023/03/22 06:04:45;;;;;;;13.02;9.82;;;10.40;99.90;;;;;;5155261;27;20487;-75
2023/03/22 06:07:12;;;;;;;16.65;10.85;;;10.50;99.90;;;;;;5119472;27;20043;-75
2023/03/22 06:09:38;;;;;;;17.23;10.52;;;10.50;99.90;;;;;;5137321;27;20046;-75
2023/03/22 06:12:04;;;;;;;14.43;11.07;;;10.50;99.90;;;;;;5154397;27;20071;-75
2023/03/22 06:14:30;;;;;;;15.52;9.52;;;10.50;99.90;;;;;;5154811;27;20130;-74
2023/03/22 06:16:56;;;;;;;17.05;9.70;;;10.40;99.90;;;;;;5136750;27;20075;-75
2023/03/22 06:19:24;;;;;;;14.10;10.05;;;10.40;99.90;;;;;;5155210;27;20123;-75
2023/03/22 06:21:51;;;;;;;14.10;9.80;;;10.40;99.90;;;;;;5155173;27;20043;-75
2023/03/22 06:24:18;;;;;;;13.95;10.50;;;10.40;99.90;;;;;;5154589;27;20049;-75
2023/03/22 06:26:44;;;;;;;16.20;9.23;;;10.40;99.90;;;;;;5154449;27;20455;-75
2023/03/22 06:29:09;;;;;;;12.68;9.15;;;10.50;99.90;;;;;;5136350;27;20046;-76
2023/03/22 06:31:35;;;;;;;12.43;9.68;;;10.40;99.90;;;;;;5154437;27;20126;-75
2023/03/22 06:34:01;;;;;;;13.57;9.90;;;10.40;99.90;;;;;;5135491;27;20093;-75
2023/03/22 06:36:28;;;;;;;15.88;10.82;;;10.50;99.90;;;;;;5136056;27;20103;-75
2023/03/22 06:38:54;;;;;;;13.73;9.85;;;10.60;99.90;;;;;;5154328;27;20047;-75
2023/03/22 06:41:19;;;;;;;16.30;9.57;;;10.60;99.90;;;;;;5154116;27;20121;-75
2023/03/22 06:43:45;;;;;;;10.90;9.52;;;10.70;99.90;;;;;;5154492;27;20155;-75
2023/03/22 06:46:11;;;;;;;14.98;9.93;;;10.80;99.90;;;;;;5154126;27;20049;-75
2023/03/22 06:48:36;;;;;;;15.63;10.50;;;10.80;99.90;;;;;;5154254;27;20458;-75
2023/03/22 06:51:02;;;;;;;15.52;9.90;;;10.70;99.90;;;;;;5153979;27;20038;-75
2023/03/22 06:53:28;;;;;;;17.50;9.60;;;10.70;99.90;;;;;;5154463;27;20129;-75
2023/03/22 06:55:53;;;;;;;14.82;9.88;;;10.80;99.90;;;;;;5154275;27;20523;-75
2023/03/22 06:58:19;;;;;;;15.52;9.88;;;10.60;99.90;;;;;;5154697;27;20447;-75
2023/03/22 07:00:45;;;;;;;13.07;9.82;;;10.80;99.90;;;;;;5154086;27;20491;-75
2023/03/22 07:03:10;;;;;;;18.40;9.60;;;10.90;99.90;;;;;;5154465;27;20456;-75
2023/03/22 07:05:36;;;;;;;10.55;8.65;;;10.90;99.90;;;;;;5153883;27;20043;-75
2023/03/22 07:08:02;;;;;;;13.68;9.93;;;10.90;99.90;;;;;;5154072;27;20519;-75
2023/03/22 07:10:28;;;;;;;11.70;8.98;;;10.90;99.90;;;;;;5135302;27;20096;-74
2023/03/22 07:12:54;;;;;;;13.45;8.80;;;10.90;99.90;;;;;;5154032;27;20464;-74
2023/03/22 07:15:23;;;;;;;14.35;8.70;;;11.00;99.90;;;;;;5135813;27;20051;-76
2023/03/22 07:17:50;;;;;;;13.85;9.48;;;11.00;99.90;;;;;;5155635;27;20398;-74
2023/03/22 07:20:17;;;;;;;16.60;9.10;;;11.10;99.90;;;;;;5158453;27;20052;-75
2023/03/22 07:22:43;;;;;;;15.25;9.02;;;11.20;99.90;;;;;;5158632;27;20108;-75
2023/03/22 07:25:09;;;;;;;13.73;8.05;;;11.30;99.90;;;;;;5157952;27;20460;-76
2023/03/22 07:27:35;;;;;;;13.75;8.57;;;11.50;99.90;;;;;;5140302;27;20456;-76
2023/03/22 07:30:03;;;;;;;11.73;7.28;;;11.50;99.90;;;;;;5139664;27;20050;-75
2023/03/22 07:32:28;;;;;;;12.60;8.27;;;11.50;99.90;;;;;;5157523;27;20043;-74
2023/03/22 07:34:54;;;;;;;12.98;8.80;;;11.40;99.90;;;;;;5140170;27;20046;-74
2023/03/22 07:37:20;;;;;;;14.85;7.68;;;11.30;99.90;;;;;;5157747;27;20043;-75
2023/03/22 07:39:45;;;;;;;12.73;7.85;;;11.30;99.90;;;;;;5157687;27;20054;-75
2023/03/22 07:42:11;;;;;;;13.23;8.63;;;11.40;99.90;;;;;;5157824;27;20082;-74
2023/03/22 07:44:37;;;;;;;10.75;7.85;;;11.50;99.90;;;;;;5157645;27;20382;-75
2023/03/22 07:47:02;;;;;;;10.35;7.10;;;11.50;99.90;;;;;;5158059;27;20039;-75
2023/03/22 07:49:29;;;;;;;13.00;7.32;;;11.50;99.90;;;;;;5157485;27;20094;-74
2023/03/22 07:51:55;;;;;;;8.95;6.60;;;11.50;99.90;;;;;;5157698;27;20043;-75
2023/03/22 07:54:21;;;;;;;14.63;8.27;;;11.40;99.90;;;;;;5157525;27;20150;-74
2023/03/22 07:56:47;;;;;;;11.15;7.80;;;11.40;99.90;;;;;;5157302;27;20038;-75
2023/03/22 07:59:14;;;;;;;10.60;6.63;;;11.40;99.90;;;;;;5157088;27;20038;-74
2023/03/22 08:01:39;;;;;;;9.18;7.00;;;11.40;99.90;;;;;;5157292;27;20463;-74
2023/03/22 08:04:05;;;;;;;9.88;7.75;;;11.30;99.90;;;;;;5157623;27;20042;-75
2023/03/22 08:06:31;;;;;;;11.65;6.70;;;11.30;99.90;;;;;;5138523;27;20122;-74
2023/03/22 08:08:58;;;;;;;8.15;6.70;;;11.30;99.90;;;;;;5138744;27;20058;-75
2023/03/22 08:11:24;;;;;;;12.75;6.40;;;11.30;99.90;;;;;;5134719;27;20112;-75
2023/03/22 08:13:50;;;;;;;8.35;6.03;;;11.30;99.90;;;;;;5134624;27;20047;-75
2023/03/22 08:16:16;;;;;;;8.23;6.70;;;11.30;99.90;;;;;;5135080;27;20058;-75
2023/03/22 08:18:41;;;;;;;10.15;6.82;;;11.40;99.90;;;;;;5135495;27;20050;-75
2023/03/22 08:21:07;;;;;;;9.82;6.05;;;11.70;99.90;;;;;;5136290;27;20049;-74
2023/03/22 08:23:33;;;;;;;9.68;5.97;;;12.00;99.90;;;;;;5117344;27;20047;-75
2023/03/22 08:25:59;;;;;;;10.38;5.60;;;12.10;99.90;;;;;;5136133;27;20050;-76
2023/03/22 08:28:25;;;;;;;8.57;6.40;;;12.20;99.90;;;;;;5135322;27;20047;-76
2023/03/22 08:30:50;;;;;;;8.90;5.20;;;12.10;99.90;;;;;;5135567;27;20429;-76
2023/03/22 08:33:16;;;;;;;10.45;5.47;;;12.00;99.90;;;;;;5135971;27;20073;-76
2023/03/22 08:35:43;;;;;;;9.85;5.68;;;11.90;99.90;;;;;;5100223;27;20532;-75
2023/03/22 08:38:09;;;;;;;8.43;5.63;;;11.80;99.90;;;;;;5117907;27;20095;-75
2023/03/22 08:40:35;;;;;;;10.45;5.70;;;11.80;99.90;;;;;;5134765;27;20059;-75
2023/03/22 08:43:01;;;;;;;6.63;5.45;;;11.80;99.90;;;;;;5135785;27;20062;-76
2023/03/22 08:45:27;;;;;;;8.40;5.50;;;11.70;99.90;;;;;;5118192;27;20102;-75
2023/03/22 08:47:53;;;;;;;9.65;6.78;;;11.80;99.90;;;;;;5135811;27;20051;-75
2023/03/22 08:50:19;;;;;;;9.43;6.15;;;11.90;99.90;;;;;;5135515;27;20039;-75
2023/03/22 08:52:44;;;;;;;10.40;5.25;;;12.10;99.90;;;;;;5135553;27;20047;-75
2023/03/22 08:55:11;;;;;;;10.50;5.47;;;12.20;99.90;;;;;;5135577;27;20130;-76
2023/03/22 08:57:36;;;;;;;9.98;5.10;;;12.30;99.90;;;;;;5135173;27;20502;-75
2023/03/22 09:00:05;;;;;;;8.38;5.10;;;12.30;99.90;;;;;;5135406;27;20047;-75
2023/03/22 09:02:31;;;;;;;7.03;4.57;;;12.40;99.90;;;;;;5134057;27;20101;-75
2023/03/22 09:04:57;;;;;;;10.68;5.45;;;12.40;99.90;;;;;;5135153;27;20130;-75
2023/03/22 09:07:23;;;;;;;6.43;4.55;;;12.40;99.90;;;;;;5134925;27;20078;-75
2023/03/22 09:09:49;;;;;;;6.80;4.22;;;12.50;99.90;;;;;;5135175;27;20073;-75
2023/03/22 09:12:15;;;;;;;5.30;4.65;;;12.60;99.90;;;;;;5154369;27;20119;-75
2023/03/22 09:14:41;;;;;;;7.05;4.60;;;12.70;99.90;;;;;;5155829;27;20079;-75
2023/03/22 09:17:07;;;;;;;9.60;4.53;;;12.70;99.90;;;;;;5156609;27;20046;-75
2023/03/22 09:19:32;;;;;;;9.35;4.72;;;12.80;99.90;;;;;;5156120;27;20049;-76
2023/03/22 09:21:58;;;;;;;6.75;4.63;;;12.70;99.90;;;;;;5155916;27;20476;-76
2023/03/22 09:24:24;;;;;;;8.30;4.90;;;12.70;99.90;;;;;;5155947;27;20034;-76
2023/03/22 09:26:50;;;;;;;5.00;4.30;;;12.70;99.90;;;;;;5137287;27;20057;-76
2023/03/22 09:29:16;;;;;;;6.40;4.13;;;12.60;99.90;;;;;;5120351;27;20046;-76
2023/03/22 09:31:42;;;;;;;7.60;4.53;;;12.60;99.90;;;;;;5155590;27;20102;-77
2023/03/22 09:34:08;;;;;;;7.72;5.30;;;12.60;99.90;;;;;;5155712;27;20082;-76
2023/03/22 09:36:33;;;;;;;9.60;3.90;;;12.50;99.90;;;;;;5155449;27;20049;-76
2023/03/22 09:38:59;;;;;;;9.70;5.38;;;12.40;99.90;;;;;;5137251;27;20046;-76
2023/03/22 09:41:46;;;;;;;10.73;4.65;;;12.50;99.90;;;;;;5155312;27;20114;-76
2023/03/22 09:44:23;;;;;;;13.32;4.30;;;12.50;99.90;;;;;;5155472;27;20054;-76
2023/03/22 09:46:52;;;;;;;6.05;3.70;;;12.40;99.90;;;;;;5156072;27;20047;-76
2023/03/22 09:49:23;;;;;;;8.32;4.10;;;12.50;99.90;;;;;;5155345;27;20516;-76
2023/03/22 09:51:51;;;;;;;6.28;4.00;;;12.50;99.90;;;;;;5155215;27;20039;-76
2023/03/22 09:54:20;;;;;;;9.60;4.03;;;12.50;99.90;;;;;;5155229;27;20058;-77
2023/03/22 09:56:57;;;;;;;13.50;4.43;;;12.60;99.90;;;;;;5155140;27;20138;-76
2023/03/22 10:00:14;;;;;;;10.43;3.90;;;12.60;99.90;;;;;;5155160;27;20082;-76
2023/03/22 10:02:56;;;;;;;7.35;4.20;;;12.50;99.90;;;;;;5054297;28;20056;-76
2023/03/22 10:05:37;;;;;;;4.55;3.40;;;12.40;99.90;;;;;;5154925;27;20490;-76
2023/03/22 10:08:30;;;;;;;11.48;4.97;;;12.30;99.90;;;;;;5154971;27;20046;-76
2023/03/22 10:10:58;;;;;;;6.85;3.50;;;12.30;99.90;;;;;;5155377;27;20051;-76
2023/03/22 10:13:33;;;;;;;8.95;3.70;;;12.20;99.90;;;;;;5154440;27;20553;-76
2023/03/22 10:16:02;;;;;;;9.75;4.03;;;12.10;99.90;;;;;;5155312;27;20083;-75
2023/03/22 10:18:47;;;;;;;6.18;3.72;;;12.10;99.90;;;;;;5154590;27;20118;-76
2023/03/22 10:21:15;;;;;;;6.47;4.03;;;12.00;99.90;;;;;;5155117;27;20035;-76
2023/03/22 10:23:59;;;;;;;8.10;3.75;;;11.90;99.90;;;;;;5154685;27;20475;-76
2023/03/22 10:26:31;;;;;;;4.65;3.45;;;11.90;99.90;;;;;;5155236;27;20110;-76
2023/03/22 10:29:02;;;;;;;9.07;4.15;;;11.80;99.90;;;;;;5154528;27;20113;-76
2023/03/22 10:31:29;;;;;;;4.18;3.55;;;11.80;99.90;;;;;;5154384;27;20095;-76
2023/03/22 10:34:01;;;;;;;8.50;4.00;;;11.70;99.90;;;;;;5154954;27;20046;-76
2023/03/22 10:36:32;;;;;;;8.73;4.28;;;11.70;99.90;;;;;;5154069;27;20506;-76
2023/03/22 10:39:15;;;;;;;6.75;4.35;;;11.70;99.90;;;;;;5154316;27;20058;-75
2023/03/22 10:41:42;;;;;;;5.70;4.38;;;11.60;99.90;;;;;;5154446;27;20043;-76
2023/03/22 10:44:13;;;;;;;7.50;4.20;;;11.60;99.90;;;;;;5154227;27;20039;-75
2023/03/22 10:46:40;;;;;;;8.13;4.53;;;11.60;99.90;;;;;;5154831;27;20068;-76
2023/03/22 10:49:10;;;;;;;7.28;4.78;;;11.60;99.90;;;;;;5135803;27;20133;-75
2023/03/22 10:51:45;;;;;;;8.65;4.20;;;11.60;99.90;;;;;;5153700;27;20546;-76
2023/03/22 10:54:17;;;;;;;12.60;4.07;;;11.50;99.90;;;;;;5154842;27;20053;-76
2023/03/22 10:56:43;;;;;;;7.18;4.63;;;11.50;99.90;;;;;;5154236;27;20099;-75
2023/03/22 10:59:41;;;;;;;7.68;3.75;;;11.40;99.90;;;;;;5154737;27;20379;-75
2023/03/22 11:02:20;;;;;;;6.88;3.90;;;11.40;99.90;;;;;;5153820;27;20050;-76
2023/03/22 11:04:53;;;;;;;7.03;4.18;;;11.40;99.90;;;;;;5154586;27;20051;-76
2023/03/22 11:07:27;;;;;;;;;;;11.40;99.90;;;;;;5154432;27;20089;-76
2023/03/22 11:10:26;;;;;;;7.32;4.45;;;11.30;99.90;;;;;;5135446;27;19958;-76
2023/03/22 11:13:14;;;;;;;15.77;4.95;;;11.30;99.90;;;;;;5125863;27;20093;-76
2023/03/22 11:15:50;;;;;;;8.55;4.88;;;11.30;99.90;;;;;;5153783;27;20054;-76
2023/03/22 11:18:16;;;;;;;8.30;4.32;;;11.20;99.90;;;;;;5154046;27;20047;-75
2023/03/22 11:20:57;;;;;;;7.63;3.83;;;11.30;99.90;;;;;;5154148;27;20050;-76
2023/03/22 11:23:24;;;;;;;5.82;4.13;;;11.20;99.90;;;;;;5154318;27;20125;-76
2023/03/22 11:25:54;;;;;;;7.97;3.90;;;11.30;99.90;;;;;;5153923;27;20042;-76
2023/03/22 11:28:27;;;;;;;5.45;4.20;;;11.20;99.90;;;;;;5153873;27;20465;-76
2023/03/22 11:31:10;;;;;;;5.90;4.10;;;11.20;99.90;;;;;;5154039;27;20035;-76
2023/03/22 11:33:37;;;;;;;8.85;3.90;;;11.20;99.90;;;;;;5154266;27;20043;-76
2023/03/22 11:36:14;;;;;;;12.40;3.88;;;11.30;99.90;;;;;;5153806;27;20082;-76
2023/03/22 11:38:42;;;;;;;7.18;3.97;;;11.30;99.90;;;;;;5154348;27;20114;-76
2023/03/22 11:41:24;;;;;;;6.65;4.05;;;11.30;99.90;;;;;;5154049;27;20053;-75
2023/03/22 11:43:53;;;;;;;5.83;4.17;;;11.30;99.90;;;;;;5153764;27;20079;-75
2023/03/22 11:46:20;;;;;;;6.50;4.00;;;11.30;99.90;;;;;;5154046;27;20284;-75
2023/03/22 11:48:49;;;;;;;6.20;3.85;;;11.30;99.90;;;;;;5153695;27;20057;-76
2023/03/22 11:51:25;;;;;;;6.43;3.20;;;11.30;99.90;;;;;;5153545;27;20042;-76
2023/03/22 11:53:56;;;;;;;4.97;3.90;;;11.40;99.90;;;;;;5154023;27;20053;-76
2023/03/22 11:56:28;;;;;;;4.80;4.10;;;11.40;99.90;;;;;;5153938;27;20035;-76
2023/03/22 11:59:05;;;;;;;5.95;3.42;;;11.40;99.90;;;;;;5153305;27;20406;-76
2023/03/22 12:01:40;;;;;;;5.18;3.30;;;11.40;99.90;;;;;;5153581;27;20039;-76
2023/03/22 12:04:12;;;;;;;5.18;3.90;;;11.40;99.90;;;;;;5155705;27;20050;-75
2023/03/22 12:06:40;;;;;;;5.13;3.58;;;11.40;99.90;;;;;;5157286;27;20480;-76
2023/03/22 12:09:12;;;;;;;6.97;3.53;;;11.40;99.90;;;;;;5157193;27;20054;-76
2023/03/22 12:11:46;;;;;;;7.53;3.58;;;11.40;99.90;;;;;;5157110;27;20500;-76
2023/03/22 12:14:26;;;;;;;6.18;2.92;;;11.40;99.90;;;;;;5157749;27;20043;-76
2023/03/22 12:17:00;;;;;;;4.70;3.00;;;11.30;99.90;;;;;;5157111;27;20046;-76
2023/03/22 12:19:56;;;;;;;3.28;2.88;;;11.40;99.90;;;;;;5157444;27;20043;-76
2023/03/22 12:22:35;;;;;;;3.67;3.22;;;11.30;99.90;;;;;;5138500;27;20442;-75
2023/03/22 12:25:02;;;;;;;6.80;3.63;;;11.30;99.90;;;;;;5156791;27;20416;-75
2023/03/22 12:27:35;;;;;;;6.65;3.15;;;11.30;99.90;;;;;;5139031;27;20043;-75
2023/03/22 12:30:11;;;;;;;4.28;2.95;;;11.30;99.90;;;;;;5157510;27;20103;-75
2023/03/22 12:32:42;;;;;;;5.22;2.92;;;11.30;99.90;;;;;;5157394;27;20051;-75
2023/03/22 12:35:14;;;;;;;4.10;3.20;;;11.30;99.90;;;;;;5157563;27;20078;-75
2023/03/22 12:37:42;;;;;;;5.55;3.10;;;11.30;99.90;;;;;;5157280;27;20114;-75
2023/03/22 12:40:22;;;;;;;6.05;3.20;;;11.30;99.90;;;;;;5156740;27;20046;-76
2023/03/22 12:43:12;;;;;;;3.65;3.15;;;11.30;99.90;;;;;;5156819;27;20470;-75
2023/03/22 12:45:41;;;;;;;7.35;3.45;;;11.40;99.90;;;;;;5156925;27;20096;-75
2023/03/22 12:48:11;;;;;;;3.50;2.97;;;11.30;99.90;;;;;;5156512;27;20215;-75
2023/03/22 12:51:07;;;;;;;5.30;3.47;;;11.30;99.90;;;;;;5156909;27;20035;-76
2023/03/22 12:53:46;;;;;;;4.30;3.58;;;11.30;99.90;;;;;;5138941;27;20055;-76
2023/03/22 12:56:16;;;;;;;5.75;4.05;;;11.20;99.90;;;;;;5156387;27;20046;-76
2023/03/22 12:58:46;;;;;;;13.68;4.63;;;11.20;99.90;;;;;;5156274;27;20527;-75